sensor_id;sensor_type;location;lat;lon;timestamp;P1;durP1;ratioP1;P2;durP2;ratioP2
52734;SDS011;38631;47.572;10.704;2023-02-15T00:01:10;26.55;;;14.68;;
52734;SDS011;38631;47.572;10.704;2023-02-15T00:03:36;25.00;;;13.80;;
52734;SDS011;38631;47.572;10.704;2023-02-15T00:06:02;22.73;;;12.65;;
52734;SDS011;38631;47.572;10.704;2023-02-15T00:08:28;21.45;;;11.52;;
52734;SDS011;38631;47.572;10.704;2023-02-15T00:10:56;20.85;;;11.63;;
52734;SDS011;38631;47.572;10.704;2023-02-15T00:13:38;19.55;;;11.23;;
52734;SDS011;38631;47.572;10.704;2023-02-15T00:16:07;19.70;;;11.45;;
52734;SDS011;38631;47.572;10.704;2023-02-15T00:18:34;20.73;;;11.68;;
52734;SDS011;38631;47.572;10.704;2023-02-15T00:21:07;20.98;;;11.00;;
52734;SDS011;38631;47.572;10.704;2023-02-15T00:23:34;16.30;;;9.35;;
52734;SDS011;38631;47.572;10.704;2023-02-15T00:26:06;21.65;;;11.07;;
52734;SDS011;38631;47.572;10.704;2023-02-15T00:28:33;28.15;;;13.88;;
52734;SDS011;38631;47.572;10.704;2023-02-15T00:31:02;28.85;;;13.77;;
52734;SDS011;38631;47.572;10.704;2023-02-15T00:33:31;31.10;;;12.95;;
52734;SDS011;38631;47.572;10.704;2023-02-15T00:35:59;26.58;;;11.15;;
52734;SDS011;38631;47.572;10.704;2023-02-15T00:38:26;21.57;;;10.17;;
52734;SDS011;38631;47.572;10.704;2023-02-15T00:40:53;21.10;;;8.73;;
52734;SDS011;38631;47.572;10.704;2023-02-15T00:43:23;17.52;;;8.80;;
52734;SDS011;38631;47.572;10.704;2023-02-15T00:45:49;14.43;;;7.72;;
52734;SDS011;38631;47.572;10.704;2023-02-15T00:48:15;11.85;;;6.70;;
52734;SDS011;38631;47.572;10.704;2023-02-15T00:50:40;11.10;;;6.03;;
52734;SDS011;38631;47.572;10.704;2023-02-15T00:53:07;11.77;;;6.78;;
52734;SDS011;38631;47.572;10.704;2023-02-15T00:55:32;12.82;;;6.75;;
52734;SDS011;38631;47.572;10.704;2023-02-15T00:57:58;10.52;;;6.25;;
52734;SDS011;38631;47.572;10.704;2023-02-15T01:00:23;9.93;;;5.72;;
52734;SDS011;38631;47.572;10.704;2023-02-15T01:02:49;11.98;;;6.85;;
52734;SDS011;38631;47.572;10.704;2023-02-15T01:05:14;13.02;;;5.85;;
52734;SDS011;38631;47.572;10.704;2023-02-15T01:07:40;10.63;;;5.60;;
52734;SDS011;38631;47.572;10.704;2023-02-15T01:10:06;10.07;;;5.40;;
52734;SDS011;38631;47.572;10.704;2023-02-15T01:12:32;10.50;;;5.18;;
52734;SDS011;38631;47.572;10.704;2023-02-15T01:14:57;7.60;;;5.05;;
52734;SDS011;38631;47.572;10.704;2023-02-15T01:17:23;9.55;;;4.88;;
52734;SDS011;38631;47.572;10.704;2023-02-15T01:19:48;10.50;;;5.60;;
52734;SDS011;38631;47.572;10.704;2023-02-15T01:22:13;13.10;;;6.40;;
52734;SDS011;38631;47.572;10.704;2023-02-15T01:24:39;10.68;;;5.20;;
52734;SDS011;38631;47.572;10.704;2023-02-15T01:27:04;9.85;;;5.68;;
52734;SDS011;38631;47.572;10.704;2023-02-15T01:29:29;10.48;;;5.30;;
52734;SDS011;38631;47.572;10.704;2023-02-15T01:31:55;9.82;;;5.00;;
52734;SDS011;38631;47.572;10.704;2023-02-15T01:34:20;7.60;;;4.28;;
52734;SDS011;38631;47.572;10.704;2023-02-15T01:36:45;9.93;;;4.70;;
52734;SDS011;38631;47.572;10.704;2023-02-15T01:39:11;8.63;;;4.60;;
52734;SDS011;38631;47.572;10.704;2023-02-15T01:41:36;11.15;;;5.43;;
52734;SDS011;38631;47.572;10.704;2023-02-15T01:44:02;9.50;;;4.87;;
52734;SDS011;38631;47.572;10.704;2023-02-15T01:46:50;9.35;;;4.68;;
52734;SDS011;38631;47.572;10.704;2023-02-15T01:49:19;6.30;;;3.60;;
52734;SDS011;38631;47.572;10.704;2023-02-15T01:51:49;7.68;;;3.92;;
52734;SDS011;38631;47.572;10.704;2023-02-15T01:54:38;8.45;;;4.07;;
52734;SDS011;38631;47.572;10.704;2023-02-15T01:57:05;6.88;;;3.88;;
52734;SDS011;38631;47.572;10.704;2023-02-15T01:59:35;6.55;;;3.42;;
52734;SDS011;38631;47.572;10.704;2023-02-15T02:02:04;7.68;;;3.88;;
52734;SDS011;38631;47.572;10.704;2023-02-15T02:04:53;8.02;;;4.38;;
52734;SDS011;38631;47.572;10.704;2023-02-15T02:07:24;4.78;;;3.08;;
52734;SDS011;38631;47.572;10.704;2023-02-15T02:09:52;6.78;;;3.55;;
52734;SDS011;38631;47.572;10.704;2023-02-15T02:12:18;5.93;;;3.13;;
52734;SDS011;38631;47.572;10.704;2023-02-15T02:14:46;8.27;;;3.35;;
52734;SDS011;38631;47.572;10.704;2023-02-15T02:17:16;6.30;;;2.95;;
52734;SDS011;38631;47.572;10.704;2023-02-15T02:22:19;4.60;;;2.38;;
52734;SDS011;38631;47.572;10.704;2023-02-15T02:27:48;4.80;;;2.40;;
52734;SDS011;38631;47.572;10.704;2023-02-15T02:42:01;8.02;;;4.03;;
52734;SDS011;38631;47.572;10.704;2023-02-15T02:44:36;7.57;;;3.95;;
52734;SDS011;38631;47.572;10.704;2023-02-15T02:49:47;6.07;;;3.20;;
52734;SDS011;38631;47.572;10.704;2023-02-15T03:00:47;6.47;;;3.13;;
52734;SDS011;38631;47.572;10.704;2023-02-15T03:03:14;10.32;;;3.55;;
52734;SDS011;38631;47.572;10.704;2023-02-15T03:05:45;5.03;;;2.95;;
52734;SDS011;38631;47.572;10.704;2023-02-15T03:08:14;6.05;;;2.72;;
52734;SDS011;38631;47.572;10.704;2023-02-15T03:10:46;5.32;;;3.15;;
52734;SDS011;38631;47.572;10.704;2023-02-15T03:13:14;5.43;;;3.05;;
52734;SDS011;38631;47.572;10.704;2023-02-15T03:15:41;5.03;;;2.95;;
52734;SDS011;38631;47.572;10.704;2023-02-15T03:18:29;5.97;;;2.80;;
52734;SDS011;38631;47.572;10.704;2023-02-15T03:20:59;5.55;;;2.75;;
52734;SDS011;38631;47.572;10.704;2023-02-15T03:23:27;5.65;;;2.00;;
52734;SDS011;38631;47.572;10.704;2023-02-15T03:25:58;3.67;;;2.45;;
52734;SDS011;38631;47.572;10.704;2023-02-15T03:28:31;4.25;;;2.42;;
52734;SDS011;38631;47.572;10.704;2023-02-15T03:31:02;3.95;;;2.10;;
52734;SDS011;38631;47.572;10.704;2023-02-15T03:33:29;4.38;;;2.30;;
52734;SDS011;38631;47.572;10.704;2023-02-15T03:36:05;5.95;;;2.25;;
52734;SDS011;38631;47.572;10.704;2023-02-15T03:38:44;4.95;;;2.95;;
52734;SDS011;38631;47.572;10.704;2023-02-15T03:41:14;3.70;;;2.25;;
52734;SDS011;38631;47.572;10.704;2023-02-15T03:43:49;5.18;;;2.50;;
52734;SDS011;38631;47.572;10.704;2023-02-15T03:46:28;3.97;;;2.33;;
52734;SDS011;38631;47.572;10.704;2023-02-15T03:49:00;4.70;;;2.97;;
52734;SDS011;38631;47.572;10.704;2023-02-15T03:51:31;4.43;;;1.98;;
52734;SDS011;38631;47.572;10.704;2023-02-15T03:56:38;3.00;;;1.70;;
52734;SDS011;38631;47.572;10.704;2023-02-15T03:59:05;3.63;;;2.13;;
52734;SDS011;38631;47.572;10.704;2023-02-15T04:04:44;2.90;;;1.63;;
52734;SDS011;38631;47.572;10.704;2023-02-15T04:07:11;3.90;;;2.08;;
52734;SDS011;38631;47.572;10.704;2023-02-15T04:09:37;4.00;;;1.70;;
52734;SDS011;38631;47.572;10.704;2023-02-15T04:12:21;3.67;;;1.60;;
52734;SDS011;38631;47.572;10.704;2023-02-15T04:14:46;2.65;;;1.67;;
52734;SDS011;38631;47.572;10.704;2023-02-15T04:17:50;2.45;;;1.48;;
52734;SDS011;38631;47.572;10.704;2023-02-15T04:20:15;2.40;;;1.60;;
52734;SDS011;38631;47.572;10.704;2023-02-15T04:22:59;3.63;;;2.03;;
52734;SDS011;38631;47.572;10.704;2023-02-15T04:25:43;3.30;;;2.03;;
52734;SDS011;38631;47.572;10.704;2023-02-15T04:28:08;3.72;;;1.67;;
52734;SDS011;38631;47.572;10.704;2023-02-15T04:30:34;3.88;;;1.90;;
52734;SDS011;38631;47.572;10.704;2023-02-15T04:32:59;2.88;;;1.80;;
52734;SDS011;38631;47.572;10.704;2023-02-15T04:35:24;3.22;;;1.90;;
52734;SDS011;38631;47.572;10.704;2023-02-15T04:37:50;5.20;;;2.03;;
52734;SDS011;38631;47.572;10.704;2023-02-15T04:40:16;4.43;;;2.03;;
52734;SDS011;38631;47.572;10.704;2023-02-15T04:42:42;3.70;;;1.98;;
52734;SDS011;38631;47.572;10.704;2023-02-15T04:45:07;3.92;;;2.22;;
52734;SDS011;38631;47.572;10.704;2023-02-15T04:47:33;3.28;;;2.13;;
52734;SDS011;38631;47.572;10.704;2023-02-15T04:49:58;3.50;;;2.08;;
52734;SDS011;38631;47.572;10.704;2023-02-15T04:52:24;5.32;;;2.58;;
52734;SDS011;38631;47.572;10.704;2023-02-15T04:54:49;3.67;;;2.42;;
52734;SDS011;38631;47.572;10.704;2023-02-15T04:57:14;6.88;;;2.67;;
52734;SDS011;38631;47.572;10.704;2023-02-15T04:59:40;3.80;;;1.85;;
52734;SDS011;38631;47.572;10.704;2023-02-15T05:02:06;3.95;;;2.10;;
52734;SDS011;38631;47.572;10.704;2023-02-15T05:04:31;3.65;;;1.90;;
52734;SDS011;38631;47.572;10.704;2023-02-15T05:06:56;5.78;;;2.60;;
52734;SDS011;38631;47.572;10.704;2023-02-15T05:09:22;3.72;;;1.90;;
52734;SDS011;38631;47.572;10.704;2023-02-15T05:11:47;4.90;;;1.88;;
52734;SDS011;38631;47.572;10.704;2023-02-15T05:14:12;3.38;;;2.10;;
52734;SDS011;38631;47.572;10.704;2023-02-15T05:16:38;3.78;;;1.75;;
52734;SDS011;38631;47.572;10.704;2023-02-15T05:19:03;3.35;;;1.73;;
52734;SDS011;38631;47.572;10.704;2023-02-15T05:21:29;3.60;;;1.88;;
52734;SDS011;38631;47.572;10.704;2023-02-15T05:23:54;2.78;;;1.50;;
52734;SDS011;38631;47.572;10.704;2023-02-15T05:26:21;3.25;;;1.50;;
52734;SDS011;38631;47.572;10.704;2023-02-15T05:29:06;2.58;;;1.20;;
52734;SDS011;38631;47.572;10.704;2023-02-15T05:31:32;2.53;;;1.55;;
52734;SDS011;38631;47.572;10.704;2023-02-15T05:33:59;2.75;;;1.73;;
52734;SDS011;38631;47.572;10.704;2023-02-15T05:36:24;4.00;;;1.80;;
52734;SDS011;38631;47.572;10.704;2023-02-15T05:38:50;2.95;;;2.10;;
52734;SDS011;38631;47.572;10.704;2023-02-15T05:41:15;3.38;;;1.40;;
52734;SDS011;38631;47.572;10.704;2023-02-15T05:43:41;4.05;;;1.70;;
52734;SDS011;38631;47.572;10.704;2023-02-15T05:46:06;4.13;;;2.22;;
52734;SDS011;38631;47.572;10.704;2023-02-15T05:48:32;2.35;;;1.55;;
52734;SDS011;38631;47.572;10.704;2023-02-15T05:51:08;4.78;;;1.80;;
52734;SDS011;38631;47.572;10.704;2023-02-15T05:53:37;3.78;;;1.52;;
52734;SDS011;38631;47.572;10.704;2023-02-15T05:56:04;2.50;;;1.50;;
52734;SDS011;38631;47.572;10.704;2023-02-15T05:58:32;4.65;;;2.75;;
52734;SDS011;38631;47.572;10.704;2023-02-15T06:00:59;2.88;;;1.52;;
52734;SDS011;38631;47.572;10.704;2023-02-15T06:03:25;2.83;;;1.80;;
52734;SDS011;38631;47.572;10.704;2023-02-15T06:05:53;2.88;;;1.85;;
52734;SDS011;38631;47.572;10.704;2023-02-15T06:08:18;5.03;;;1.92;;
52734;SDS011;38631;47.572;10.704;2023-02-15T06:10:45;5.70;;;3.08;;
52734;SDS011;38631;47.572;10.704;2023-02-15T06:13:10;5.10;;;2.63;;
52734;SDS011;38631;47.572;10.704;2023-02-15T06:15:36;3.83;;;2.60;;
52734;SDS011;38631;47.572;10.704;2023-02-15T06:18:01;6.40;;;2.22;;
52734;SDS011;38631;47.572;10.704;2023-02-15T06:20:27;7.60;;;3.63;;
52734;SDS011;38631;47.572;10.704;2023-02-15T06:22:52;4.30;;;2.47;;
52734;SDS011;38631;47.572;10.704;2023-02-15T06:25:18;4.85;;;2.97;;
52734;SDS011;38631;47.572;10.704;2023-02-15T06:27:43;5.90;;;3.20;;
52734;SDS011;38631;47.572;10.704;2023-02-15T06:30:09;4.60;;;2.70;;
52734;SDS011;38631;47.572;10.704;2023-02-15T06:32:35;5.50;;;2.90;;
52734;SDS011;38631;47.572;10.704;2023-02-15T06:35:01;4.72;;;2.80;;
52734;SDS011;38631;47.572;10.704;2023-02-15T06:37:26;5.95;;;3.35;;
52734;SDS011;38631;47.572;10.704;2023-02-15T06:39:52;4.50;;;2.78;;
52734;SDS011;38631;47.572;10.704;2023-02-15T06:42:17;7.07;;;2.92;;
52734;SDS011;38631;47.572;10.704;2023-02-15T06:44:43;4.85;;;2.75;;
52734;SDS011;38631;47.572;10.704;2023-02-15T06:47:09;6.05;;;3.35;;
52734;SDS011;38631;47.572;10.704;2023-02-15T06:49:34;5.35;;;3.15;;
52734;SDS011;38631;47.572;10.704;2023-02-15T06:51:59;5.70;;;3.28;;
52734;SDS011;38631;47.572;10.704;2023-02-15T06:54:25;5.28;;;2.78;;
52734;SDS011;38631;47.572;10.704;2023-02-15T06:56:50;5.75;;;3.10;;
52734;SDS011;38631;47.572;10.704;2023-02-15T06:59:15;8.70;;;4.03;;
52734;SDS011;38631;47.572;10.704;2023-02-15T07:01:41;7.20;;;3.38;;
52734;SDS011;38631;47.572;10.704;2023-02-15T07:04:06;5.65;;;3.10;;
52734;SDS011;38631;47.572;10.704;2023-02-15T07:06:32;7.07;;;3.00;;
52734;SDS011;38631;47.572;10.704;2023-02-15T07:08:58;4.72;;;2.50;;
52734;SDS011;38631;47.572;10.704;2023-02-15T07:11:23;9.25;;;3.13;;
52734;SDS011;38631;47.572;10.704;2023-02-15T07:14:08;4.60;;;2.55;;
52734;SDS011;38631;47.572;10.704;2023-02-15T07:16:33;6.03;;;2.90;;
52734;SDS011;38631;47.572;10.704;2023-02-15T07:18:59;4.80;;;2.65;;
52734;SDS011;38631;47.572;10.704;2023-02-15T07:21:24;6.32;;;2.47;;
52734;SDS011;38631;47.572;10.704;2023-02-15T07:23:50;5.10;;;2.83;;
52734;SDS011;38631;47.572;10.704;2023-02-15T07:26:15;9.88;;;3.10;;
52734;SDS011;38631;47.572;10.704;2023-02-15T07:28:40;7.13;;;4.18;;
52734;SDS011;38631;47.572;10.704;2023-02-15T07:31:06;9.40;;;4.00;;
52734;SDS011;38631;47.572;10.704;2023-02-15T07:33:31;11.05;;;6.38;;
52734;SDS011;38631;47.572;10.704;2023-02-15T07:35:58;11.73;;;7.60;;
52734;SDS011;38631;47.572;10.704;2023-02-15T07:38:26;10.43;;;6.13;;
52734;SDS011;38631;47.572;10.704;2023-02-15T07:40:57;11.13;;;6.20;;
52734;SDS011;38631;47.572;10.704;2023-02-15T07:43:24;11.85;;;7.65;;
52734;SDS011;38631;47.572;10.704;2023-02-15T07:45:49;9.15;;;6.10;;
52734;SDS011;38631;47.572;10.704;2023-02-15T07:48:14;11.02;;;6.80;;
52734;SDS011;38631;47.572;10.704;2023-02-15T07:50:40;15.65;;;8.05;;
52734;SDS011;38631;47.572;10.704;2023-02-15T07:53:05;12.20;;;7.53;;
52734;SDS011;38631;47.572;10.704;2023-02-15T07:55:30;12.18;;;6.20;;
52734;SDS011;38631;47.572;10.704;2023-02-15T07:57:56;12.70;;;7.55;;
52734;SDS011;38631;47.572;10.704;2023-02-15T08:00:22;37.92;;;18.67;;
52734;SDS011;38631;47.572;10.704;2023-02-15T08:02:58;38.72;;;18.67;;
52734;SDS011;38631;47.572;10.704;2023-02-15T08:05:41;16.23;;;8.68;;
52734;SDS011;38631;47.572;10.704;2023-02-15T08:08:08;15.68;;;8.73;;
52734;SDS011;38631;47.572;10.704;2023-02-15T08:10:56;10.10;;;5.95;;
52734;SDS011;38631;47.572;10.704;2023-02-15T08:13:45;10.25;;;5.35;;
52734;SDS011;38631;47.572;10.704;2023-02-15T08:18:49;10.32;;;4.78;;
52734;SDS011;38631;47.572;10.704;2023-02-15T08:21:14;4.75;;;3.00;;
52734;SDS011;38631;47.572;10.704;2023-02-15T08:23:42;6.43;;;4.22;;
52734;SDS011;38631;47.572;10.704;2023-02-15T08:26:07;7.45;;;4.10;;
52734;SDS011;38631;47.572;10.704;2023-02-15T08:28:33;7.90;;;4.15;;
52734;SDS011;38631;47.572;10.704;2023-02-15T08:31:08;10.65;;;4.97;;
52734;SDS011;38631;47.572;10.704;2023-02-15T08:33:35;6.63;;;3.78;;
52734;SDS011;38631;47.572;10.704;2023-02-15T08:36:05;5.80;;;2.85;;
52734;SDS011;38631;47.572;10.704;2023-02-15T08:38:48;4.32;;;2.35;;
52734;SDS011;38631;47.572;10.704;2023-02-15T08:41:15;4.72;;;2.38;;
52734;SDS011;38631;47.572;10.704;2023-02-15T08:43:41;5.25;;;2.70;;
52734;SDS011;38631;47.572;10.704;2023-02-15T08:46:07;6.80;;;3.40;;
52734;SDS011;38631;47.572;10.704;2023-02-15T08:48:34;5.03;;;2.88;;
52734;SDS011;38631;47.572;10.704;2023-02-15T08:51:03;5.63;;;3.10;;
52734;SDS011;38631;47.572;10.704;2023-02-15T08:53:35;6.60;;;2.80;;
52734;SDS011;38631;47.572;10.704;2023-02-15T08:56:01;5.63;;;3.00;;
52734;SDS011;38631;47.572;10.704;2023-02-15T08:58:27;4.78;;;3.10;;
52734;SDS011;38631;47.572;10.704;2023-02-15T09:00:53;6.32;;;3.10;;
52734;SDS011;38631;47.572;10.704;2023-02-15T09:03:19;5.78;;;2.90;;
52734;SDS011;38631;47.572;10.704;2023-02-15T09:05:44;5.22;;;2.33;;
52734;SDS011;38631;47.572;10.704;2023-02-15T09:08:09;3.15;;;1.40;;
52734;SDS011;38631;47.572;10.704;2023-02-15T09:10:35;3.22;;;1.63;;
52734;SDS011;38631;47.572;10.704;2023-02-15T09:13:00;5.63;;;1.45;;
52734;SDS011;38631;47.572;10.704;2023-02-15T09:15:26;3.67;;;1.88;;
52734;SDS011;38631;47.572;10.704;2023-02-15T09:17:51;3.13;;;1.58;;
52734;SDS011;38631;47.572;10.704;2023-02-15T09:20:16;2.97;;;1.73;;
52734;SDS011;38631;47.572;10.704;2023-02-15T09:22:42;4.55;;;1.77;;
52734;SDS011;38631;47.572;10.704;2023-02-15T09:25:08;2.50;;;1.55;;
52734;SDS011;38631;47.572;10.704;2023-02-15T09:27:33;4.65;;;2.08;;
52734;SDS011;38631;47.572;10.704;2023-02-15T09:29:58;4.05;;;2.08;;
52734;SDS011;38631;47.572;10.704;2023-02-15T09:32:24;3.70;;;1.75;;
52734;SDS011;38631;47.572;10.704;2023-02-15T09:34:49;4.20;;;1.60;;
52734;SDS011;38631;47.572;10.704;2023-02-15T09:37:15;2.88;;;1.30;;
52734;SDS011;38631;47.572;10.704;2023-02-15T09:39:41;5.88;;;1.77;;
52734;SDS011;38631;47.572;10.704;2023-02-15T09:45:45;3.13;;;1.60;;
52734;SDS011;38631;47.572;10.704;2023-02-15T09:48:21;5.72;;;1.10;;
52734;SDS011;38631;47.572;10.704;2023-02-15T09:51:26;4.25;;;1.73;;
52734;SDS011;38631;47.572;10.704;2023-02-15T09:54:39;6.30;;;2.60;;
52734;SDS011;38631;47.572;10.704;2023-02-15T10:02:54;5.22;;;1.83;;
52734;SDS011;38631;47.572;10.704;2023-02-15T10:14:12;3.25;;;1.80;;
52734;SDS011;38631;47.572;10.704;2023-02-15T10:19:41;4.05;;;1.80;;
52734;SDS011;38631;47.572;10.704;2023-02-15T10:22:28;4.55;;;1.90;;
52734;SDS011;38631;47.572;10.704;2023-02-15T10:25:20;3.50;;;1.73;;
52734;SDS011;38631;47.572;10.704;2023-02-15T10:27:47;5.25;;;1.88;;
52734;SDS011;38631;47.572;10.704;2023-02-15T10:30:23;3.58;;;1.90;;
52734;SDS011;38631;47.572;10.704;2023-02-15T10:32:59;3.75;;;1.60;;
52734;SDS011;38631;47.572;10.704;2023-02-15T10:36:03;2.38;;;1.45;;
52734;SDS011;38631;47.572;10.704;2023-02-15T10:41:20;4.33;;;1.40;;
52734;SDS011;38631;47.572;10.704;2023-02-15T10:52:09;4.13;;;1.48;;
52734;SDS011;38631;47.572;10.704;2023-02-15T10:57:50;3.25;;;1.60;;
52734;SDS011;38631;47.572;10.704;2023-02-15T11:00:41;7.03;;;2.03;;
52734;SDS011;38631;47.572;10.704;2023-02-15T11:06:00;6.22;;;1.58;;
52734;SDS011;38631;47.572;10.704;2023-02-15T11:08:31;6.35;;;1.85;;
52734;SDS011;38631;47.572;10.704;2023-02-15T11:11:01;2.80;;;1.40;;
52734;SDS011;38631;47.572;10.704;2023-02-15T11:13:32;5.47;;;1.38;;
52734;SDS011;38631;47.572;10.704;2023-02-15T11:18:43;3.28;;;1.40;;
52734;SDS011;38631;47.572;10.704;2023-02-15T11:21:55;7.07;;;2.28;;
52734;SDS011;38631;47.572;10.704;2023-02-15T11:24:09;2.90;;;1.63;;
52734;SDS011;38631;47.572;10.704;2023-02-15T11:26:41;3.17;;;1.85;;
52734;SDS011;38631;47.572;10.704;2023-02-15T11:32:20;2.88;;;1.15;;
52734;SDS011;38631;47.572;10.704;2023-02-15T11:34:56;2.42;;;0.80;;
52734;SDS011;38631;47.572;10.704;2023-02-15T11:37:33;5.40;;;1.08;;
52734;SDS011;38631;47.572;10.704;2023-02-15T11:40:12;1.83;;;1.00;;
52734;SDS011;38631;47.572;10.704;2023-02-15T11:42:59;3.65;;;1.00;;
52734;SDS011;38631;47.572;10.704;2023-02-15T11:45:29;2.67;;;1.08;;
52734;SDS011;38631;47.572;10.704;2023-02-15T11:47:57;4.43;;;1.27;;
52734;SDS011;38631;47.572;10.704;2023-02-15T11:50:24;2.03;;;1.15;;
52734;SDS011;38631;47.572;10.704;2023-02-15T11:52:54;4.45;;;1.13;;
52734;SDS011;38631;47.572;10.704;2023-02-15T11:55:24;4.18;;;1.45;;
52734;SDS011;38631;47.572;10.704;2023-02-15T11:57:53;2.42;;;1.38;;
52734;SDS011;38631;47.572;10.704;2023-02-15T12:00:45;5.07;;;1.02;;
52734;SDS011;38631;47.572;10.704;2023-02-15T12:03:13;5.75;;;1.85;;
52734;SDS011;38631;47.572;10.704;2023-02-15T12:05:44;3.30;;;1.45;;
52734;SDS011;38631;47.572;10.704;2023-02-15T12:08:13;6.40;;;1.50;;
52734;SDS011;38631;47.572;10.704;2023-02-15T12:11:02;2.65;;;1.55;;
52734;SDS011;38631;47.572;10.704;2023-02-15T12:13:32;2.90;;;1.10;;
52734;SDS011;38631;47.572;10.704;2023-02-15T12:15:58;4.30;;;1.08;;
52734;SDS011;38631;47.572;10.704;2023-02-15T12:18:33;3.30;;;1.08;;
52734;SDS011;38631;47.572;10.704;2023-02-15T12:21:03;2.15;;;1.10;;
52734;SDS011;38631;47.572;10.704;2023-02-15T12:23:48;4.85;;;1.27;;
52734;SDS011;38631;47.572;10.704;2023-02-15T12:26:27;3.22;;;0.90;;
52734;SDS011;38631;47.572;10.704;2023-02-15T12:28:54;3.95;;;0.77;;
52734;SDS011;38631;47.572;10.704;2023-02-15T12:34:32;2.97;;;1.30;;
52734;SDS011;38631;47.572;10.704;2023-02-15T12:37:09;2.47;;;0.90;;
52734;SDS011;38631;47.572;10.704;2023-02-15T12:39:41;1.33;;;0.70;;
52734;SDS011;38631;47.572;10.704;2023-02-15T12:42:17;1.33;;;0.90;;
52734;SDS011;38631;47.572;10.704;2023-02-15T12:47:46;2.13;;;0.70;;
52734;SDS011;38631;47.572;10.704;2023-02-15T12:50:40;3.22;;;0.82;;
52734;SDS011;38631;47.572;10.704;2023-02-15T12:55:31;2.67;;;0.60;;
52734;SDS011;38631;47.572;10.704;2023-02-15T12:58:16;1.08;;;0.50;;
52734;SDS011;38631;47.572;10.704;2023-02-15T13:00:44;1.30;;;0.60;;
52734;SDS011;38631;47.572;10.704;2023-02-15T13:03:17;2.08;;;0.60;;
52734;SDS011;38631;47.572;10.704;2023-02-15T13:05:46;4.00;;;1.10;;
52734;SDS011;38631;47.572;10.704;2023-02-15T13:08:25;1.42;;;0.75;;
52734;SDS011;38631;47.572;10.704;2023-02-15T13:11:08;2.47;;;0.70;;
52734;SDS011;38631;47.572;10.704;2023-02-15T13:13:36;2.20;;;0.55;;
52734;SDS011;38631;47.572;10.704;2023-02-15T13:16:15;1.10;;;0.70;;
52734;SDS011;38631;47.572;10.704;2023-02-15T13:18:49;2.33;;;1.05;;
52734;SDS011;38631;47.572;10.704;2023-02-15T13:21:21;1.20;;;0.63;;
52734;SDS011;38631;47.572;10.704;2023-02-15T13:24:15;1.55;;;1.00;;
52734;SDS011;38631;47.572;10.704;2023-02-15T13:29:28;0.90;;;0.52;;
52734;SDS011;38631;47.572;10.704;2023-02-15T13:31:57;2.00;;;0.90;;
52734;SDS011;38631;47.572;10.704;2023-02-15T13:34:26;3.15;;;0.75;;
52734;SDS011;38631;47.572;10.704;2023-02-15T13:39:42;1.45;;;0.65;;
52734;SDS011;38631;47.572;10.704;2023-02-15T13:42:27;3.28;;;0.95;;
52734;SDS011;38631;47.572;10.704;2023-02-15T13:48:30;3.45;;;0.95;;
52734;SDS011;38631;47.572;10.704;2023-02-15T13:59:15;2.63;;;0.90;;
52734;SDS011;38631;47.572;10.704;2023-02-15T14:01:50;3.90;;;1.10;;
52734;SDS011;38631;47.572;10.704;2023-02-15T14:04:35;2.45;;;0.98;;
52734;SDS011;38631;47.572;10.704;2023-02-15T14:07:33;1.38;;;0.63;;
52734;SDS011;38631;47.572;10.704;2023-02-15T14:10:43;1.45;;;0.70;;
52734;SDS011;38631;47.572;10.704;2023-02-15T14:18:55;7.07;;;1.10;;
52734;SDS011;38631;47.572;10.704;2023-02-15T14:24:42;2.25;;;1.13;;
52734;SDS011;38631;47.572;10.704;2023-02-15T14:29:53;1.75;;;1.27;;
52734;SDS011;38631;47.572;10.704;2023-02-15T14:34:52;2.47;;;1.02;;
52734;SDS011;38631;47.572;10.704;2023-02-15T14:38:02;1.88;;;1.10;;
52734;SDS011;38631;47.572;10.704;2023-02-15T14:40:21;2.60;;;0.60;;
52734;SDS011;38631;47.572;10.704;2023-02-15T14:48:25;6.55;;;1.33;;
52734;SDS011;38631;47.572;10.704;2023-02-15T14:50:55;2.58;;;0.98;;
52734;SDS011;38631;47.572;10.704;2023-02-15T14:58:58;3.72;;;0.80;;
52734;SDS011;38631;47.572;10.704;2023-02-15T15:01:24;1.63;;;1.23;;
52734;SDS011;38631;47.572;10.704;2023-02-15T15:03:53;2.10;;;0.80;;
52734;SDS011;38631;47.572;10.704;2023-02-15T15:08:51;2.20;;;1.00;;
52734;SDS011;38631;47.572;10.704;2023-02-15T15:11:42;4.72;;;1.40;;
52734;SDS011;38631;47.572;10.704;2023-02-15T15:14:10;2.55;;;1.27;;
52734;SDS011;38631;47.572;10.704;2023-02-15T15:16:56;2.03;;;1.20;;
52734;SDS011;38631;47.572;10.704;2023-02-15T15:20:04;2.55;;;1.42;;
52734;SDS011;38631;47.572;10.704;2023-02-15T15:22:17;5.38;;;3.63;;
52734;SDS011;38631;47.572;10.704;2023-02-15T15:32:51;17.80;;;7.68;;
52734;SDS011;38631;47.572;10.704;2023-02-15T15:38:37;13.85;;;5.38;;
52734;SDS011;38631;47.572;10.704;2023-02-15T15:42:12;17.80;;;5.68;;
52734;SDS011;38631;47.572;10.704;2023-02-15T15:50:13;9.88;;;2.80;;
52734;SDS011;38631;47.572;10.704;2023-02-15T15:52:43;5.88;;;3.10;;
52734;SDS011;38631;47.572;10.704;2023-02-15T15:55:16;11.80;;;5.25;;
52734;SDS011;38631;47.572;10.704;2023-02-15T15:57:45;15.63;;;5.97;;
52734;SDS011;38631;47.572;10.704;2023-02-15T16:00:25;12.52;;;6.10;;
52734;SDS011;38631;47.572;10.704;2023-02-15T16:05:39;10.98;;;3.42;;
52734;SDS011;38631;47.572;10.704;2023-02-15T16:08:05;9.57;;;3.60;;
52734;SDS011;38631;47.572;10.704;2023-02-15T16:10:31;6.20;;;3.80;;
52734;SDS011;38631;47.572;10.704;2023-02-15T16:12:58;12.85;;;5.72;;
52734;SDS011;38631;47.572;10.704;2023-02-15T16:15:25;7.93;;;4.75;;
52734;SDS011;38631;47.572;10.704;2023-02-15T16:17:54;17.85;;;7.38;;
52734;SDS011;38631;47.572;10.704;2023-02-15T16:20:26;24.75;;;12.93;;
52734;SDS011;38631;47.572;10.704;2023-02-15T16:26:05;69.32;;;36.70;;
52734;SDS011;38631;47.572;10.704;2023-02-15T16:28:51;120.55;;;63.00;;
52734;SDS011;38631;47.572;10.704;2023-02-15T16:31:17;124.68;;;64.72;;
52734;SDS011;38631;47.572;10.704;2023-02-15T16:33:43;103.55;;;51.97;;
52734;SDS011;38631;47.572;10.704;2023-02-15T16:36:13;82.60;;;41.30;;
52734;SDS011;38631;47.572;10.704;2023-02-15T16:41:29;58.42;;;28.58;;
52734;SDS011;38631;47.572;10.704;2023-02-15T16:43:58;57.53;;;26.90;;
52734;SDS011;38631;47.572;10.704;2023-02-15T16:46:32;40.15;;;21.60;;
52734;SDS011;38631;47.572;10.704;2023-02-15T16:49:03;36.10;;;17.75;;
52734;SDS011;38631;47.572;10.704;2023-02-15T16:51:32;34.22;;;16.83;;
52734;SDS011;38631;47.572;10.704;2023-02-15T16:54:02;26.17;;;13.35;;
52734;SDS011;38631;47.572;10.704;2023-02-15T16:56:31;19.90;;;11.77;;
52734;SDS011;38631;47.572;10.704;2023-02-15T16:58:58;15.88;;;8.85;;
52734;SDS011;38631;47.572;10.704;2023-02-15T17:01:29;16.88;;;8.75;;
52734;SDS011;38631;47.572;10.704;2023-02-15T17:09:28;17.38;;;7.55;;
52734;SDS011;38631;47.572;10.704;2023-02-15T17:11:54;17.33;;;7.28;;
52734;SDS011;38631;47.572;10.704;2023-02-15T17:14:21;18.10;;;7.63;;
52734;SDS011;38631;47.572;10.704;2023-02-15T17:17:02;25.85;;;8.15;;
52734;SDS011;38631;47.572;10.704;2023-02-15T17:19:33;18.73;;;7.97;;
52734;SDS011;38631;47.572;10.704;2023-02-15T17:22:25;19.98;;;8.57;;
52734;SDS011;38631;47.572;10.704;2023-02-15T17:25:02;20.38;;;8.93;;
52734;SDS011;38631;47.572;10.704;2023-02-15T17:27:29;22.05;;;11.40;;
52734;SDS011;38631;47.572;10.704;2023-02-15T17:29:58;27.42;;;11.82;;
52734;SDS011;38631;47.572;10.704;2023-02-15T17:32:28;41.40;;;11.77;;
52734;SDS011;38631;47.572;10.704;2023-02-15T17:34:59;18.52;;;8.00;;
52734;SDS011;38631;47.572;10.704;2023-02-15T17:40:02;16.05;;;7.68;;